sim
Sign-in with your pilot id or email,
or register
Callsign
Passwort

Schedule Details

Flight Number: OEO7395
Departure: Portland International Airport (KPDX) at 22:40
Arrival: Munich Airport (EDDM) at 09:15

Weather Information
Getting current METAR information for KPDX 250653Z 17008KT 10SM BKN130 17/12 A2996 RMK AO2 SLP143 T01670122
Getting current METAR information for EDDM 250650Z 20007KT 9999 RA FEW020 BKN040 12/11 Q1001 TEMPO 28015G25KT

Schedule Frequency

Route Map